Time;durP1;ratioP1;P1;durP2;ratioP2;P2;SDS_P1;SDS_P2;PMS_P1;PMS_P2;Temp;Humidity;BMP_temperature;BMP_pressure;BME280_temperature;BME280_humidity;BME280_pressure;Samples;Min_cycle;Max_cycle;Signal;HPM_P1;HPM_P2
2021/11/02 00:00:33;;;;;;;39.80;26.35;;;;;;;;;;2093651;28;20080;-69
2021/11/02 00:01:51;;;;;;;37.92;26.05;;;;;;;;;;2097083;28;20103;-70
2021/11/02 00:03:10;;;;;;;38.22;25.77;;;;;;;;;;2097100;28;20044;-70
2021/11/02 00:04:29;;;;;;;38.10;26.83;;;;;;;;;;2097718;28;20017;-69
2021/11/02 00:05:48;;;;;;;37.45;26.48;;;;;;;;;;2096089;28;20127;-68
2021/11/02 00:07:07;;;;;;;37.78;25.83;;;;;;;;;;2096137;28;20111;-68
2021/11/02 00:08:26;;;;;;;37.65;26.35;;;;;;;;;;2098620;28;20515;-68
2021/11/02 00:09:46;;;;;;;34.85;26.00;;;;;;;;;;2094052;28;20381;-69
2021/11/02 00:11:05;;;;;;;38.13;25.05;;;;;;;;;;2095715;28;20021;-69
2021/11/02 00:12:24;;;;;;;37.38;25.67;;;;;;;;;;2096621;28;20398;-68
2021/11/02 00:13:46;;;;;;;36.95;27.30;;;;;;;;;;2097267;28;20398;-68
2021/11/02 00:15:06;;;;;;;43.58;26.73;;;;;;;;;;2096825;28;20478;-69
2021/11/02 00:16:25;;;;;;;40.63;26.08;;;;;;;;;;2096861;28;20032;-68
2021/11/02 00:17:43;;;;;;;35.60;26.25;;;;;;;;;;2097359;28;20058;-69
2021/11/02 00:19:05;;;;;;;41.85;27.48;;;;;;;;;;2095323;28;20036;-69
2021/11/02 00:20:24;;;;;;;36.78;26.50;;;;;;;;;;2097700;28;20029;-69
2021/11/02 00:21:46;;;;;;;43.70;27.50;;;;;;;;;;2096719;28;20064;-68
2021/11/02 00:23:07;;;;;;;36.72;26.02;;;;;;;;;;2097407;28;20025;-69
2021/11/02 00:24:38;;;;;;;39.90;25.27;;;;;;;;;;2095027;28;20147;-67
2021/11/02 00:25:57;;;;;;;37.58;25.05;;;;;;;;;;2093934;28;20024;-68
2021/11/02 00:27:16;;;;;;;36.92;26.25;;;;;;;;;;2097447;28;20029;-68
2021/11/02 00:28:35;;;;;;;39.47;26.55;;;;;;;;;;2096837;28;20128;-68
2021/11/02 00:29:55;;;;;;;36.80;25.33;;;;;;;;;;2096524;28;20461;-68
2021/11/02 00:31:14;;;;;;;38.63;26.10;;;;;;;;;;2095520;28;20046;-68
2021/11/02 00:32:32;;;;;;;32.78;25.40;;;;;;;;;;2096685;28;20036;-68
2021/11/02 00:33:51;;;;;;;37.17;26.10;;;;;;;;;;2102464;28;20020;-68
2021/11/02 00:35:11;;;;;;;39.45;26.23;;;;;;;;;;2096746;28;20039;-68
2021/11/02 00:36:30;;;;;;;42.78;27.48;;;;;;;;;;2096076;28;20032;-68
2021/11/02 00:37:49;;;;;;;39.75;27.00;;;;;;;;;;2089024;28;20029;-68
2021/11/02 00:39:08;;;;;;;39.03;26.40;;;;;;;;;;2101089;28;20424;-67
2021/11/02 00:40:27;;;;;;;38.08;27.17;;;;;;;;;;2097257;28;20040;-67
2021/11/02 00:41:45;;;;;;;39.35;25.88;;;;;;;;;;2095115;28;20052;-68
2021/11/02 00:43:05;;;;;;;41.53;27.08;;;;;;;;;;2097598;28;20028;-68
2021/11/02 00:44:24;;;;;;;37.17;26.38;;;;;;;;;;2094727;28;20028;-67
2021/11/02 00:45:44;;;;;;;39.72;27.85;;;;;;;;;;2096777;28;20032;-67
2021/11/02 00:47:06;;;;;;;37.05;26.45;;;;;;;;;;2097592;28;20485;-67
2021/11/02 00:48:27;;;;;;;37.58;26.77;;;;;;;;;;2096559;28;20024;-68
2021/11/02 00:49:46;;;;;;;37.75;27.58;;;;;;;;;;2097723;28;20044;-67
2021/11/02 00:51:06;;;;;;;37.83;26.90;;;;;;;;;;2095387;28;20039;-67
2021/11/02 00:52:24;;;;;;;38.38;25.92;;;;;;;;;;2093334;28;20036;-67
2021/11/02 00:53:43;;;;;;;33.95;25.17;;;;;;;;;;2091043;28;20060;-67
2021/11/02 00:55:04;;;;;;;41.28;26.52;;;;;;;;;;2097369;28;20025;-67
2021/11/02 00:56:23;;;;;;;39.75;26.90;;;;;;;;;;2095801;28;20394;-67
2021/11/02 00:57:42;;;;;;;36.03;25.98;;;;;;;;;;2096979;28;20041;-67
2021/11/02 00:59:01;;;;;;;41.95;26.20;;;;;;;;;;2095019;28;20021;-67
2021/11/02 01:00:20;;;;;;;41.05;26.70;;;;;;;;;;2097254;28;20032;-69
2021/11/02 01:01:39;;;;;;;39.70;27.25;;;;;;;;;;2097507;28;20096;-68
2021/11/02 01:02:58;;;;;;;40.72;26.95;;;;;;;;;;2097252;28;20052;-67
2021/11/02 01:04:17;;;;;;;41.70;27.35;;;;;;;;;;2097696;28;20037;-68
2021/11/02 01:05:36;;;;;;;41.40;27.40;;;;;;;;;;2095874;28;20048;-67
2021/11/02 01:06:55;;;;;;;37.63;26.15;;;;;;;;;;2096120;28;20029;-67
2021/11/02 01:08:13;;;;;;;40.92;26.45;;;;;;;;;;2096517;28;20033;-67
2021/11/02 01:09:32;;;;;;;38.15;27.10;;;;;;;;;;2097236;28;20139;-67
2021/11/02 01:10:52;;;;;;;42.72;27.17;;;;;;;;;;2093088;28;20032;-67
2021/11/02 01:12:11;;;;;;;39.60;26.23;;;;;;;;;;2094985;28;20028;-67
2021/11/02 01:13:31;;;;;;;39.35;27.33;;;;;;;;;;2097448;28;20162;-68
2021/11/02 01:14:50;;;;;;;36.42;25.25;;;;;;;;;;2093460;28;20025;-67
2021/11/02 01:16:09;;;;;;;35.80;25.50;;;;;;;;;;2100651;28;20021;-67
2021/11/02 01:17:28;;;;;;;41.35;26.58;;;;;;;;;;2094623;28;20032;-68
2021/11/02 01:18:47;;;;;;;34.90;25.88;;;;;;;;;;2092094;28;20120;-70
2021/11/02 01:20:08;;;;;;;36.42;26.05;;;;;;;;;;2093277;28;20036;-68
2021/11/02 01:21:27;;;;;;;42.35;26.85;;;;;;;;;;2091387;28;20028;-69
2021/11/02 01:22:46;;;;;;;36.47;25.65;;;;;;;;;;2094064;28;20041;-69
2021/11/02 01:24:05;;;;;;;34.05;25.45;;;;;;;;;;2097545;28;20060;-69
2021/11/02 01:25:24;;;;;;;37.47;25.45;;;;;;;;;;2095190;28;20036;-68
2021/11/02 01:26:43;;;;;;;39.45;26.25;;;;;;;;;;2096302;28;20040;-68
2021/11/02 01:28:02;;;;;;;37.08;26.45;;;;;;;;;;2096776;28;20072;-68
2021/11/02 01:29:21;;;;;;;43.13;26.55;;;;;;;;;;2097480;28;20494;-68
2021/11/02 01:30:40;;;;;;;39.42;26.55;;;;;;;;;;2095034;28;20033;-67
2021/11/02 01:31:59;;;;;;;39.70;26.95;;;;;;;;;;2095858;28;20025;-68
2021/11/02 01:33:18;;;;;;;38.63;27.55;;;;;;;;;;2097781;28;20036;-68
2021/11/02 01:34:37;;;;;;;36.85;26.75;;;;;;;;;;2096824;28;20021;-68
2021/11/02 01:35:56;;;;;;;34.72;25.80;;;;;;;;;;2097568;28;20028;-68
2021/11/02 01:37:15;;;;;;;37.20;25.80;;;;;;;;;;2095021;28;20036;-68
2021/11/02 01:38:34;;;;;;;38.67;25.50;;;;;;;;;;2096300;28;20033;-67
2021/11/02 01:39:53;;;;;;;40.70;25.95;;;;;;;;;;2094698;28;20377;-68
2021/11/02 01:41:15;;;;;;;43.83;26.60;;;;;;;;;;2098374;28;20277;-68
2021/11/02 01:42:35;;;;;;;34.63;25.75;;;;;;;;;;2095531;28;20036;-69
2021/11/02 01:43:56;;;;;;;34.13;25.65;;;;;;;;;;2096349;28;20501;-68
2021/11/02 01:45:17;;;;;;;35.25;26.58;;;;;;;;;;2097464;28;20041;-68
2021/11/02 01:46:37;;;;;;;37.47;26.05;;;;;;;;;;2087513;28;20040;-68
2021/11/02 01:47:57;;;;;;;36.53;26.67;;;;;;;;;;2092128;28;20028;-68
2021/11/02 01:49:17;;;;;;;38.22;25.85;;;;;;;;;;2096666;28;20029;-67
2021/11/02 01:50:37;;;;;;;38.05;26.95;;;;;;;;;;2097584;28;20578;-67
2021/11/02 01:51:56;;;;;;;37.17;26.55;;;;;;;;;;2096681;28;20033;-67
2021/11/02 01:53:16;;;;;;;40.05;26.50;;;;;;;;;;2097530;28;20024;-67
2021/11/02 01:54:34;;;;;;;36.55;25.90;;;;;;;;;;2093104;28;20032;-67
2021/11/02 01:55:53;;;;;;;38.78;27.05;;;;;;;;;;2096034;28;20498;-67
2021/11/02 01:57:12;;;;;;;36.03;26.38;;;;;;;;;;2095364;28;20076;-69
2021/11/02 01:58:31;;;;;;;38.78;25.83;;;;;;;;;;2100242;28;20024;-67
2021/11/02 01:59:51;;;;;;;36.70;26.63;;;;;;;;;;2097819;28;20024;-69
2021/11/02 02:01:10;;;;;;;35.20;27.08;;;;;;;;;;2096544;28;20494;-67
2021/11/02 02:02:35;;;;;;;36.08;26.80;;;;;;;;;;2095143;28;20506;-70
2021/11/02 02:04:06;;;;;;;34.92;25.65;;;;;;;;;;2094765;28;20032;-69
2021/11/02 02:05:36;;;;;;;35.38;25.60;;;;;;;;;;2096416;28;20055;-68
2021/11/02 02:06:58;;;;;;;36.20;26.02;;;;;;;;;;2095793;28;20037;-68
2021/11/02 02:08:17;;;;;;;39.40;25.77;;;;;;;;;;2096826;28;20024;-68
2021/11/02 02:09:41;;;;;;;37.95;25.85;;;;;;;;;;2095364;28;20487;-68
2021/11/02 02:11:16;;;;;;;37.83;26.52;;;;;;;;;;2097283;28;20021;-68
2021/11/02 02:12:45;;;;;;;39.40;26.02;;;;;;;;;;2095613;28;20033;-68
2021/11/02 02:14:12;;;;;;;41.92;28.10;;;;;;;;;;2095062;28;20025;-69
2021/11/02 02:15:40;;;;;;;39.40;26.90;;;;;;;;;;2097102;28;20029;-68
2021/11/02 02:17:01;;;;;;;35.10;25.95;;;;;;;;;;2096766;28;20033;-68
2021/11/02 02:18:32;;;;;;;38.70;26.25;;;;;;;;;;2094267;28;20029;-68
2021/11/02 02:19:51;;;;;;;39.88;26.10;;;;;;;;;;2096297;28;20025;-68
2021/11/02 02:21:16;;;;;;;40.38;27.67;;;;;;;;;;2095816;28;20028;-68
2021/11/02 02:22:43;;;;;;;39.17;26.33;;;;;;;;;;2095325;28;20032;-68
2021/11/02 02:24:12;;;;;;;39.78;28.17;;;;;;;;;;2094641;28;20025;-68
2021/11/02 02:25:50;;;;;;;36.50;25.45;;;;;;;;;;2097133;28;20033;-68
2021/11/02 02:27:18;;;;;;;35.22;25.98;;;;;;;;;;2099985;28;20099;-68
2021/11/02 02:28:38;;;;;;;35.67;25.58;;;;;;;;;;2090833;28;20414;-68
2021/11/02 02:29:58;;;;;;;36.75;26.55;;;;;;;;;;2097173;28;20037;-68
2021/11/02 02:31:18;;;;;;;37.13;26.95;;;;;;;;;;2099416;28;20028;-68
2021/11/02 02:32:39;;;;;;;37.17;27.17;;;;;;;;;;2096014;28;20064;-69
2021/11/02 02:33:58;;;;;;;37.75;26.75;;;;;;;;;;2096740;28;20028;-69
2021/11/02 02:35:18;;;;;;;38.25;26.67;;;;;;;;;;2096207;28;20103;-69
2021/11/02 02:36:38;;;;;;;37.10;25.92;;;;;;;;;;2097579;28;20478;-69
2021/11/02 02:37:57;;;;;;;38.55;25.80;;;;;;;;;;2094873;28;20028;-68
2021/11/02 02:39:16;;;;;;;39.03;26.83;;;;;;;;;;2097139;28;20052;-69
2021/11/02 02:40:36;;;;;;;37.85;25.73;;;;;;;;;;2097671;28;20028;-68
2021/11/02 02:41:56;;;;;;;38.03;27.27;;;;;;;;;;2097338;28;20104;-68
2021/11/02 02:43:15;;;;;;;35.08;26.70;;;;;;;;;;2093994;28;20025;-68
2021/11/02 02:44:34;;;;;;;40.03;27.52;;;;;;;;;;2097637;28;20036;-68
2021/11/02 02:45:53;;;;;;;41.47;26.90;;;;;;;;;;2097752;28;20024;-68
2021/11/02 02:47:13;;;;;;;40.28;26.90;;;;;;;;;;2098927;28;20603;-68
2021/11/02 02:48:32;;;;;;;38.72;26.98;;;;;;;;;;2097603;28;20029;-68
2021/11/02 02:49:53;;;;;;;40.53;26.67;;;;;;;;;;2096458;28;20111;-68
2021/11/02 02:51:14;;;;;;;40.17;28.00;;;;;;;;;;2096991;28;20520;-68
2021/11/02 02:52:33;;;;;;;35.63;25.90;;;;;;;;;;2098281;28;20470;-68
2021/11/02 02:53:54;;;;;;;34.25;26.05;;;;;;;;;;2097832;28;20036;-68
2021/11/02 02:55:13;;;;;;;40.03;27.55;;;;;;;;;;2097717;28;20024;-68
2021/11/02 02:56:33;;;;;;;38.20;25.75;;;;;;;;;;2098122;28;20107;-68
2021/11/02 02:57:54;;;;;;;39.17;27.00;;;;;;;;;;2096957;28;20060;-68
2021/11/02 02:59:13;;;;;;;36.58;26.55;;;;;;;;;;2097928;28;20040;-67
2021/11/02 03:00:32;;;;;;;37.45;26.60;;;;;;;;;;2098248;28;20032;-68
2021/11/02 03:01:54;;;;;;;37.28;25.83;;;;;;;;;;2097103;28;20028;-68
2021/11/02 03:03:13;;;;;;;36.47;25.80;;;;;;;;;;2097728;28;20573;-68
2021/11/02 03:04:36;;;;;;;40.15;27.67;;;;;;;;;;2097015;28;20123;-68
2021/11/02 03:05:58;;;;;;;43.80;27.77;;;;;;;;;;2096256;28;20104;-68
2021/11/02 03:07:17;;;;;;;39.08;26.40;;;;;;;;;;2097459;28;20016;-68
2021/11/02 03:08:36;;;;;;;34.42;26.38;;;;;;;;;;2095448;28;20029;-68
2021/11/02 03:09:55;;;;;;;38.63;25.45;;;;;;;;;;2097718;28;20032;-67
2021/11/02 03:11:14;;;;;;;35.47;26.33;;;;;;;;;;2095929;28;20489;-68
2021/11/02 03:12:36;;;;;;;34.92;25.50;;;;;;;;;;2097982;28;20032;-68
2021/11/02 03:13:57;;;;;;;40.80;27.10;;;;;;;;;;2096752;28;20442;-67
2021/11/02 03:17:05;;;;;;;35.50;25.48;;;;;;;;;;2098705;28;20498;-68
2021/11/02 03:55:32;;;;;;;40.45;26.42;;;;;;;;;;2097341;28;20483;-68
2021/11/02 03:59:00;;;;;;;40.95;27.20;;;;;;;;;;2097114;28;19904;-68
2021/11/02 04:27:47;;;;;;;40.03;27.85;;;;;;;;;;2097111;28;20085;-68
2021/11/02 05:11:15;;;;;;;47.95;28.77;;;;;;;;;;2096802;28;20498;-69
2021/11/02 05:13:59;;;;;;;45.08;29.05;;;;;;;;;;2096744;28;20103;-68
2021/11/02 05:55:47;;;;;;;44.85;29.27;;;;;;;;;;2095260;28;20394;-68
2021/11/02 05:59:10;;;;;;;45.63;28.73;;;;;;;;;;2089939;28;20028;-69
2021/11/02 06:00:32;;;;;;;41.83;28.63;;;;;;;;;;2095140;28;20611;-67
2021/11/02 06:03:26;;;;;;;47.30;29.27;;;;;;;;;;2096484;28;20041;-67
2021/11/02 06:05:04;;;;;;;42.60;28.45;;;;;;;;;;2096965;28;20032;-66
2021/11/02 06:06:41;;;;;;;44.85;29.40;;;;;;;;;;2094277;28;20510;-66
2021/11/02 06:08:21;;;;;;;43.15;29.20;;;;;;;;;;2096136;28;20037;-68
2021/11/02 06:09:49;;;;;;;46.10;29.83;;;;;;;;;;2096432;28;20020;-67
2021/11/02 06:23:19;;;;;;;45.38;30.10;;;;;;;;;;2096181;28;20450;-67
2021/11/02 06:28:09;;;;;;;49.13;30.35;;;;;;;;;;2095841;28;20041;-66
2021/11/02 06:29:31;;;;;;;51.75;31.60;;;;;;;;;;2096246;28;20386;-65
2021/11/02 06:31:01;;;;;;;49.88;30.75;;;;;;;;;;2096517;28;20104;-64
2021/11/02 06:32:27;;;;;;;50.55;31.33;;;;;;;;;;2095960;28;20383;-65
2021/11/02 06:47:49;;;;;;;48.40;30.50;;;;;;;;;;2097221;28;20107;-66
2021/11/02 06:54:35;;;;;;;50.22;32.13;;;;;;;;;;2097714;28;20029;-67
2021/11/02 06:58:00;;;;;;;51.30;32.08;;;;;;;;;;2097732;28;20075;-66
2021/11/02 07:18:03;;;;;;;53.10;33.05;;;;;;;;;;2091183;28;20029;-65
2021/11/02 07:19:30;;;;;;;56.00;31.80;;;;;;;;;;2096730;28;20033;-65
2021/11/02 07:21:03;;;;;;;54.95;32.78;;;;;;;;;;2095492;28;20430;-65
2021/11/02 07:22:43;;;;;;;47.03;31.80;;;;;;;;;;2096251;28;20468;-64
2021/11/02 07:24:11;;;;;;;51.85;31.65;;;;;;;;;;2096973;28;20490;-65
2021/11/02 08:47:41;;;;;;;65.68;35.00;;;;;;;;;;2098235;28;20016;-67
2021/11/02 08:49:02;;;;;;;62.65;35.15;;;;;;;;;;2096785;28;20035;-66
2021/11/02 08:50:21;;;;;;;63.80;35.00;;;;;;;;;;2088252;28;20052;-67
2021/11/02 08:51:40;;;;;;;67.72;36.65;;;;;;;;;;2090417;28;20439;-67
2021/11/02 08:53:01;;;;;;;62.92;34.60;;;;;;;;;;2096316;28;20024;-66
2021/11/02 08:54:20;;;;;;;68.32;36.85;;;;;;;;;;2096115;28;20092;-67
2021/11/02 08:55:40;;;;;;;66.65;37.65;;;;;;;;;;2095109;28;20025;-67
2021/11/02 08:56:59;;;;;;;69.18;36.17;;;;;;;;;;2097947;28;20025;-67
2021/11/02 08:58:22;;;;;;;65.45;36.15;;;;;;;;;;2098164;28;20021;-66
2021/11/02 08:59:41;;;;;;;67.97;36.53;;;;;;;;;;2095281;28;20502;-67
2021/11/02 09:01:01;;;;;;;64.50;34.45;;;;;;;;;;2094410;28;20024;-67
2021/11/02 09:02:33;;;;;;;63.13;35.17;;;;;;;;;;2095988;28;20020;-67
2021/11/02 09:03:59;;;;;;;62.15;35.78;;;;;;;;;;2096628;28;20036;-67
2021/11/02 09:05:25;;;;;;;65.30;35.80;;;;;;;;;;2095502;28;20029;-67
2021/11/02 09:06:48;;;;;;;62.13;34.60;;;;;;;;;;2096844;28;20072;-66
2021/11/02 09:08:10;;;;;;;67.27;34.67;;;;;;;;;;2098196;28;20486;-67
2021/11/02 09:09:30;;;;;;;57.30;34.40;;;;;;;;;;2096461;28;20230;-66
2021/11/02 09:10:49;;;;;;;57.90;33.92;;;;;;;;;;2096682;28;20062;-67
2021/11/02 09:12:09;;;;;;;56.42;33.35;;;;;;;;;;2096596;28;20036;-66
2021/11/02 09:13:29;;;;;;;58.08;35.17;;;;;;;;;;2096993;28;20115;-65
2021/11/02 09:14:49;;;;;;;57.78;34.83;;;;;;;;;;2095283;28;20040;-67
2021/11/02 09:16:08;;;;;;;58.80;32.53;;;;;;;;;;2096554;28;20028;-67
2021/11/02 09:17:32;;;;;;;59.85;35.28;;;;;;;;;;2097297;28;20068;-65
2021/11/02 09:18:51;;;;;;;61.92;34.28;;;;;;;;;;2097446;28;20025;-65
2021/11/02 09:20:10;;;;;;;56.20;34.20;;;;;;;;;;2091089;28;20033;-66
2021/11/02 09:21:29;;;;;;;57.13;33.38;;;;;;;;;;2096990;28;20052;-66
2021/11/02 09:22:49;;;;;;;54.92;33.95;;;;;;;;;;2097391;28;20024;-66
2021/11/02 09:24:08;;;;;;;56.85;34.13;;;;;;;;;;2095205;28;20052;-66
2021/11/02 09:25:26;;;;;;;55.60;33.45;;;;;;;;;;2094807;28;20493;-65
2021/11/02 09:26:46;;;;;;;54.17;33.72;;;;;;;;;;2097610;28;20028;-68
2021/11/02 09:28:05;;;;;;;55.65;33.10;;;;;;;;;;2097078;28;20020;-68
2021/11/02 09:29:24;;;;;;;56.33;32.42;;;;;;;;;;2094337;28;20529;-67
2021/11/02 09:30:43;;;;;;;51.08;32.53;;;;;;;;;;2096578;28;20119;-68
2021/11/02 09:32:04;;;;;;;55.30;33.58;;;;;;;;;;2101633;28;20024;-67
2021/11/02 09:33:23;;;;;;;50.80;31.42;;;;;;;;;;2092073;28;20052;-69
2021/11/02 09:34:42;;;;;;;52.50;32.47;;;;;;;;;;2094283;28;20475;-70
2021/11/02 09:36:03;;;;;;;52.38;31.75;;;;;;;;;;2097885;28;20040;-66
2021/11/02 09:37:33;;;;;;;49.72;31.83;;;;;;;;;;2096242;28;20036;-68
2021/11/02 09:38:51;;;;;;;46.40;30.52;;;;;;;;;;2095526;28;20028;-66
2021/11/02 09:40:13;;;;;;;51.00;31.98;;;;;;;;;;2095419;28;20037;-66
2021/11/02 09:41:54;;;;;;;48.97;31.30;;;;;;;;;;2097065;28;20394;-67
2021/11/02 09:43:28;;;;;;;57.45;32.35;;;;;;;;;;2089204;28;20033;-67
2021/11/02 09:45:08;;;;;;;51.03;31.10;;;;;;;;;;2096636;28;20033;-67
2021/11/02 09:46:56;;;;;;;49.47;30.42;;;;;;;;;;2096185;28;20033;-67
2021/11/02 09:48:18;;;;;;;45.05;29.63;;;;;;;;;;2096762;28;20491;-67
2021/11/02 09:49:43;;;;;;;48.58;29.98;;;;;;;;;;2097613;28;20045;-67
2021/11/02 09:51:10;;;;;;;52.25;31.15;;;;;;;;;;2098162;28;20024;-70
2021/11/02 09:52:38;;;;;;;48.13;29.85;;;;;;;;;;2099018;28;20024;-67
2021/11/02 09:54:07;;;;;;;44.80;28.83;;;;;;;;;;2098106;28;20119;-68
2021/11/02 09:55:53;;;;;;;48.47;29.38;;;;;;;;;;2097843;28;20024;-70
2021/11/02 09:57:28;;;;;;;47.85;28.95;;;;;;;;;;2093800;28;20470;-66
2021/11/02 09:59:20;;;;;;;46.38;28.92;;;;;;;;;;2096686;28;20032;-67
2021/11/02 10:00:48;;;;;;;40.90;27.92;;;;;;;;;;2078133;28;20519;-67
2021/11/02 10:02:33;;;;;;;45.03;28.45;;;;;;;;;;2095967;28;20048;-69
2021/11/02 10:04:06;;;;;;;41.42;26.60;;;;;;;;;;2097014;28;20044;-68
2021/11/02 10:05:41;;;;;;;43.55;28.23;;;;;;;;;;2098063;28;20044;-66
2021/11/02 10:07:05;;;;;;;46.40;30.40;;;;;;;;;;2097731;28;20037;-67
2021/11/02 10:08:37;;;;;;;44.95;28.88;;;;;;;;;;2097486;28;20037;-66
2021/11/02 10:09:58;;;;;;;44.22;28.70;;;;;;;;;;2098058;28;20036;-66
2021/11/02 10:11:35;;;;;;;48.30;29.85;;;;;;;;;;2097514;28;20033;-67
2021/11/02 10:13:03;;;;;;;42.50;27.20;;;;;;;;;;2098428;28;20032;-68
2021/11/02 10:14:50;;;;;;;45.50;27.38;;;;;;;;;;2098172;28;20390;-65
2021/11/02 10:16:31;;;;;;;42.20;27.35;;;;;;;;;;2093127;28;20060;-67
2021/11/02 10:18:01;;;;;;;43.90;29.02;;;;;;;;;;2098011;28;20050;-66
2021/11/02 10:19:39;;;;;;;43.25;27.50;;;;;;;;;;2097306;28;20036;-67
2021/11/02 10:21:17;;;;;;;46.25;28.40;;;;;;;;;;2093185;28;20024;-67
2021/11/02 10:22:42;;;;;;;44.45;27.15;;;;;;;;;;2096651;28;20032;-67
2021/11/02 10:24:22;;;;;;;45.33;28.67;;;;;;;;;;2099037;28;20033;-69
2021/11/02 10:26:00;;;;;;;45.38;27.92;;;;;;;;;;2097029;28;20024;-67
2021/11/02 10:27:38;;;;;;;44.95;27.70;;;;;;;;;;2098432;28;20490;-67
2021/11/02 10:29:17;;;;;;;44.63;27.60;;;;;;;;;;2098837;28;20020;-69
2021/11/02 10:30:48;;;;;;;45.17;27.50;;;;;;;;;;2096371;28;20395;-67
2021/11/02 10:32:09;;;;;;;46.80;28.40;;;;;;;;;;2092873;28;20040;-67
2021/11/02 10:33:31;;;;;;;46.45;27.17;;;;;;;;;;2097969;28;20021;-67
2021/11/02 10:35:09;;;;;;;43.50;27.85;;;;;;;;;;2097600;28;20036;-68
2021/11/02 10:36:48;;;;;;;47.28;28.27;;;;;;;;;;2096826;28;20044;-67
2021/11/02 10:38:25;;;;;;;43.80;27.55;;;;;;;;;;2098384;28;20118;-67
2021/11/02 10:40:03;;;;;;;46.70;27.48;;;;;;;;;;2099652;28;20036;-67
2021/11/02 10:41:26;;;;;;;45.03;27.80;;;;;;;;;;2096003;28;20029;-69
2021/11/02 10:42:59;;;;;;;42.83;28.73;;;;;;;;;;2098396;28;20111;-66
2021/11/02 10:44:29;;;;;;;49.87;29.90;;;;;;;;;;2099480;28;20025;-67
2021/11/02 10:45:54;;;;;;;43.83;27.85;;;;;;;;;;2097360;28;20631;-66
2021/11/02 10:47:19;;;;;;;45.13;27.65;;;;;;;;;;2099206;28;20036;-67
2021/11/02 10:48:48;;;;;;;48.60;28.25;;;;;;;;;;2097916;28;20112;-66
2021/11/02 10:50:09;;;;;;;46.90;26.88;;;;;;;;;;2096756;28;20020;-68
2021/11/02 10:51:35;;;;;;;42.60;26.67;;;;;;;;;;2097099;28;20029;-67
2021/11/02 10:52:58;;;;;;;43.50;26.95;;;;;;;;;;2097604;28;20021;-66
2021/11/02 10:54:20;;;;;;;47.00;26.98;;;;;;;;;;2097301;28;20497;-67
2021/11/02 10:55:43;;;;;;;42.35;27.15;;;;;;;;;;2100105;28;20062;-68
2021/11/02 10:57:18;;;;;;;47.60;28.95;;;;;;;;;;2096904;28;20033;-68
2021/11/02 10:58:43;;;;;;;48.45;28.10;;;;;;;;;;2098137;28;20025;-67
2021/11/02 11:00:09;;;;;;;43.95;26.63;;;;;;;;;;2095706;28;20032;-66
2021/11/02 11:01:30;;;;;;;47.65;28.90;;;;;;;;;;2095485;28;20036;-67
2021/11/02 11:02:50;;;;;;;43.72;27.40;;;;;;;;;;2095842;28;20402;-66
2021/11/02 11:04:12;;;;;;;47.50;27.90;;;;;;;;;;2096513;28;20103;-67
2021/11/02 11:05:32;;;;;;;44.35;28.25;;;;;;;;;;2098422;28;20036;-68
2021/11/02 11:06:54;;;;;;;43.33;28.50;;;;;;;;;;2098289;28;20078;-66
2021/11/02 11:08:14;;;;;;;42.53;27.80;;;;;;;;;;2098928;28;20478;-70
2021/11/02 11:09:34;;;;;;;42.20;27.42;;;;;;;;;;2097871;28;20825;-67
2021/11/02 11:10:55;;;;;;;43.53;27.17;;;;;;;;;;2097548;28;20040;-67
2021/11/02 11:12:14;;;;;;;46.83;28.42;;;;;;;;;;2096872;28;20394;-68
2021/11/02 11:13:34;;;;;;;43.63;28.73;;;;;;;;;;2095478;28;20048;-66
2021/11/02 11:14:53;;;;;;;45.47;27.88;;;;;;;;;;2097387;28;20060;-66
2021/11/02 11:16:17;;;;;;;45.38;27.98;;;;;;;;;;2095573;28;20382;-66
2021/11/02 11:17:36;;;;;;;42.38;26.65;;;;;;;;;;2099073;28;20036;-68
2021/11/02 11:19:07;;;;;;;48.92;27.25;;;;;;;;;;2097786;28;20032;-67
2021/11/02 11:20:26;;;;;;;45.70;28.65;;;;;;;;;;2096892;28;20025;-67
2021/11/02 11:21:46;;;;;;;51.95;28.90;;;;;;;;;;2097629;28;20021;-67
2021/11/02 11:23:07;;;;;;;45.17;28.30;;;;;;;;;;2097680;28;20111;-67
2021/11/02 11:24:25;;;;;;;45.00;28.48;;;;;;;;;;2098595;28;20059;-67
2021/11/02 11:25:47;;;;;;;47.05;28.35;;;;;;;;;;2096199;28;20040;-67
2021/11/02 11:27:07;;;;;;;46.42;28.77;;;;;;;;;;2096428;28;20436;-67
2021/11/02 11:28:32;;;;;;;42.35;27.90;;;;;;;;;;2096616;28;20100;-67
2021/11/02 11:29:53;;;;;;;44.92;28.92;;;;;;;;;;2096634;28;20438;-67
2021/11/02 11:31:15;;;;;;;45.47;28.42;;;;;;;;;;2096709;28;20028;-68
2021/11/02 11:32:38;;;;;;;46.00;29.42;;;;;;;;;;2097976;28;20033;-67
2021/11/02 11:34:00;;;;;;;47.83;29.58;;;;;;;;;;2096895;28;20402;-67
2021/11/02 11:35:19;;;;;;;53.78;29.30;;;;;;;;;;2094221;28;20033;-67
2021/11/02 11:36:39;;;;;;;46.05;28.90;;;;;;;;;;2096929;28;20099;-67
2021/11/02 11:38:00;;;;;;;49.28;30.65;;;;;;;;;;2096687;28;20028;-66
2021/11/02 11:39:20;;;;;;;47.47;29.55;;;;;;;;;;2097280;28;20520;-66
2021/11/02 11:40:41;;;;;;;49.35;29.58;;;;;;;;;;2097763;28;20036;-66
2021/11/02 11:42:00;;;;;;;48.13;30.00;;;;;;;;;;2096090;28;20123;-65
2021/11/02 11:43:24;;;;;;;50.42;30.63;;;;;;;;;;2098329;28;20032;-66
2021/11/02 11:44:48;;;;;;;49.15;31.20;;;;;;;;;;2097750;28;20037;-66
2021/11/02 11:46:10;;;;;;;51.65;32.90;;;;;;;;;;2096942;28;20103;-65
2021/11/02 11:47:29;;;;;;;49.22;30.77;;;;;;;;;;2094362;28;20040;-66
2021/11/02 11:48:55;;;;;;;50.25;30.65;;;;;;;;;;2097894;28;20037;-66
2021/11/02 11:50:17;;;;;;;55.38;32.28;;;;;;;;;;2098130;28;20066;-66
2021/11/02 11:51:37;;;;;;;49.00;30.73;;;;;;;;;;2097132;28;20020;-66
2021/11/02 11:53:02;;;;;;;53.00;31.13;;;;;;;;;;2098281;28;20545;-65
2021/11/02 11:54:21;;;;;;;52.17;31.70;;;;;;;;;;2096756;28;20104;-66
2021/11/02 11:55:42;;;;;;;58.65;32.45;;;;;;;;;;2095828;28;20052;-66
2021/11/02 11:57:01;;;;;;;50.30;32.33;;;;;;;;;;2095141;28;20040;-66
2021/11/02 11:58:21;;;;;;;50.92;31.88;;;;;;;;;;2095800;28;20044;-65
2021/11/02 11:59:40;;;;;;;53.47;32.67;;;;;;;;;;2097656;28;20032;-65
2021/11/02 12:01:05;;;;;;;56.83;32.65;;;;;;;;;;2097822;28;20036;-66
2021/11/02 12:02:27;;;;;;;48.45;30.55;;;;;;;;;;2095976;28;20471;-66
2021/11/02 12:04:05;;;;;;;51.75;33.58;;;;;;;;;;2097614;28;20650;-65
2021/11/02 12:05:24;;;;;;;50.42;31.90;;;;;;;;;;2098281;28;20111;-67
2021/11/02 12:06:50;;;;;;;55.08;32.03;;;;;;;;;;2094654;28;20107;-67
2021/11/02 12:08:08;;;;;;;53.78;32.13;;;;;;;;;;2096254;28;20029;-68
2021/11/02 12:09:28;;;;;;;51.67;32.75;;;;;;;;;;2097636;28;20060;-68
2021/11/02 12:10:49;;;;;;;55.47;33.38;;;;;;;;;;2097519;28;20064;-68
2021/11/02 12:12:09;;;;;;;55.00;31.25;;;;;;;;;;2096903;28;20025;-65
2021/11/02 12:13:28;;;;;;;49.33;32.58;;;;;;;;;;2095657;28;20028;-66
2021/11/02 12:14:54;;;;;;;54.63;32.38;;;;;;;;;;2095585;28;20470;-65
2021/11/02 12:16:24;;;;;;;49.45;31.65;;;;;;;;;;2097495;28;20036;-65
2021/11/02 12:17:45;;;;;;;57.80;33.42;;;;;;;;;;2095999;28;20710;-65
2021/11/02 12:19:11;;;;;;;53.28;31.63;;;;;;;;;;2097873;28;20036;-66
2021/11/02 12:20:31;;;;;;;49.08;31.67;;;;;;;;;;2095291;28;20029;-66
2021/11/02 12:22:03;;;;;;;50.67;31.73;;;;;;;;;;2097982;28;20494;-66
2021/11/02 12:23:45;;;;;;;51.78;31.90;;;;;;;;;;2097128;28;20048;-66
2021/11/02 12:25:07;;;;;;;55.60;31.83;;;;;;;;;;2095942;28;20487;-66
2021/11/02 12:26:46;;;;;;;55.45;34.28;;;;;;;;;;2097767;28;20115;-65
2021/11/02 12:28:06;;;;;;;51.70;31.00;;;;;;;;;;2095327;28;20036;-65
2021/11/02 12:29:27;;;;;;;51.38;32.03;;;;;;;;;;2097962;28;20028;-65
2021/11/02 12:30:45;;;;;;;50.10;32.20;;;;;;;;;;2096957;28;20482;-65
2021/11/02 12:32:05;;;;;;;49.45;31.77;;;;;;;;;;2096964;28;20028;-65
2021/11/02 12:33:25;;;;;;;51.67;32.13;;;;;;;;;;2097142;28;20056;-65
2021/11/02 12:34:52;;;;;;;47.75;31.27;;;;;;;;;;2092902;28;20514;-66
2021/11/02 12:36:16;;;;;;;52.95;33.50;;;;;;;;;;2093938;28;20054;-65
2021/11/02 12:37:48;;;;;;;47.80;32.88;;;;;;;;;;2096620;28;20036;-67
2021/11/02 12:39:07;;;;;;;47.90;31.27;;;;;;;;;;2096333;28;20024;-66
2021/11/02 12:40:28;;;;;;;50.60;32.20;;;;;;;;;;2094868;28;20495;-65
2021/11/02 12:41:48;;;;;;;48.63;32.38;;;;;;;;;;2095881;28;20040;-65
2021/11/02 12:43:33;;;;;;;47.67;31.67;;;;;;;;;;2095460;28;20037;-66
2021/11/02 12:44:54;;;;;;;45.13;30.40;;;;;;;;;;2094906;28;20498;-66
2021/11/02 12:46:13;;;;;;;46.17;31.90;;;;;;;;;;2096777;28;20024;-66
2021/11/02 12:47:32;;;;;;;54.40;31.67;;;;;;;;;;2097118;28;20565;-64
2021/11/02 12:48:52;;;;;;;49.63;31.50;;;;;;;;;;2096422;28;20425;-68
2021/11/02 12:50:11;;;;;;;49.03;32.55;;;;;;;;;;2097510;28;20028;-64
2021/11/02 12:51:34;;;;;;;42.22;30.42;;;;;;;;;;2096638;28;20025;-64
2021/11/02 12:52:56;;;;;;;44.65;30.77;;;;;;;;;;2097563;28;20024;-64
2021/11/02 12:54:16;;;;;;;43.72;30.48;;;;;;;;;;2095835;28;20056;-64
2021/11/02 12:55:36;;;;;;;45.40;30.88;;;;;;;;;;2097376;28;20060;-64
2021/11/02 12:57:08;;;;;;;47.55;31.13;;;;;;;;;;2095823;28;20029;-63